Time;durP1;ratioP1;P1;durP2;ratioP2;P2;SDS_P1;SDS_P2;PMS_P1;PMS_P2;Temp;Humidity;BMP_temperature;BMP_pressure;BME280_temperature;BME280_humidity;BME280_pressure;Samples;Min_cycle;Max_cycle;Signal;HPM_P1;HPM_P2
2022/06/01 00:00:52;;;;;;;0.40;0.40;;;10.30;99.90;;;;;;4981763;28;20086;-71
2022/06/01 00:03:18;;;;;;;0.63;0.63;;;10.30;99.90;;;;;;4981971;28;20093;-71
2022/06/01 00:05:43;;;;;;;0.30;0.30;;;10.20;99.90;;;;;;4981928;28;20418;-71
2022/06/01 00:08:09;;;;;;;0.70;0.70;;;10.20;99.90;;;;;;4998439;28;20467;-71
2022/06/01 00:10:35;;;;;;;0.93;0.88;;;10.20;99.90;;;;;;4980555;28;20050;-70
2022/06/01 00:13:00;;;;;;;0.70;0.70;;;10.10;99.90;;;;;;4981924;28;20153;-70
2022/06/01 00:15:30;;;;;;;0.40;0.40;;;10.10;99.90;;;;;;4980786;28;20054;-71
2022/06/01 00:17:57;;;;;;;0.98;0.57;;;10.20;99.90;;;;;;4981237;28;20515;-71
2022/06/01 00:20:23;;;;;;;0.50;0.50;;;10.20;99.90;;;;;;4981391;28;20473;-71
2022/06/01 00:22:48;;;;;;;0.50;0.50;;;10.20;99.90;;;;;;4981162;28;20046;-71
2022/06/01 00:25:15;;;;;;;0.50;0.50;;;10.20;99.90;;;;;;4962137;28;20484;-71
2022/06/01 00:27:41;;;;;;;0.85;0.75;;;10.20;99.90;;;;;;4961315;28;20447;-71
2022/06/01 00:30:10;;;;;;;0.50;0.50;;;10.20;99.90;;;;;;4961894;28;20043;-71
2022/06/01 00:32:35;;;;;;;0.43;0.43;;;10.20;99.90;;;;;;4978887;28;20043;-71
2022/06/01 00:35:03;;;;;;;0.40;0.40;;;10.20;99.90;;;;;;4961407;28;20062;-71
2022/06/01 00:37:29;;;;;;;0.70;0.70;;;10.20;99.90;;;;;;4961325;28;20523;-70
2022/06/01 00:39:55;;;;;;;0.77;0.77;;;10.20;99.90;;;;;;4965968;28;20047;-71
2022/06/01 00:42:24;;;;;;;0.40;0.40;;;10.30;99.90;;;;;;4997754;28;20117;-71
2022/06/01 00:44:51;;;;;;;1.35;1.05;;;10.20;99.90;;;;;;4980673;28;20050;-71
2022/06/01 00:47:17;;;;;;;0.50;0.50;;;10.20;99.90;;;;;;4980803;28;20054;-71
2022/06/01 00:49:55;;;;;;;1.00;0.70;;;10.20;99.90;;;;;;4980617;28;20414;-71
2022/06/01 00:52:35;;;;;;;0.65;0.65;;;10.30;99.90;;;;;;4980152;28;20050;-71
2022/06/01 00:55:19;;;;;;;0.40;0.40;;;10.30;99.90;;;;;;4989319;28;20042;-71
2022/06/01 00:57:48;;;;;;;0.50;0.50;;;10.30;99.90;;;;;;4961350;28;20061;-70
2022/06/01 01:00:23;;;;;;;0.50;0.50;;;10.30;99.90;;;;;;4961093;28;20054;-71
2022/06/01 01:02:52;;;;;;;4.50;1.35;;;10.30;99.90;;;;;;4977826;28;20376;-71
2022/06/01 01:05:18;;;;;;;0.90;0.82;;;10.40;99.90;;;;;;4961559;28;20058;-71
2022/06/01 01:07:45;;;;;;;0.60;0.60;;;10.30;99.90;;;;;;4960954;28;20482;-70
2022/06/01 01:10:13;;;;;;;0.57;0.55;;;10.30;99.90;;;;;;4971861;28;20054;-71
2022/06/01 01:12:58;;;;;;;1.40;1.10;;;10.30;99.90;;;;;;4997283;28;20073;-71
2022/06/01 01:15:52;;;;;;;1.98;1.05;;;10.30;99.90;;;;;;4980323;28;20375;-71
2022/06/01 01:18:20;;;;;;;3.90;1.70;;;10.30;99.90;;;;;;4979961;28;20074;-71
2022/06/01 01:21:13;;;;;;;0.55;0.55;;;10.50;99.90;;;;;;4997291;28;20285;-71
2022/06/01 01:23:48;;;;;;;0.40;0.40;;;10.30;99.90;;;;;;4995556;28;20101;-71
2022/06/01 01:26:14;;;;;;;0.77;0.55;;;10.30;99.90;;;;;;4979471;28;20112;-71
2022/06/01 01:28:41;;;;;;;0.57;0.57;;;10.30;99.90;;;;;;4964023;28;20046;-71
2022/06/01 01:31:11;;;;;;;0.93;0.80;;;10.30;99.90;;;;;;4973947;28;20039;-71
2022/06/01 01:33:38;;;;;;;0.77;0.77;;;10.30;99.90;;;;;;4960550;28;20114;-71
2022/06/01 01:36:09;;;;;;;0.70;0.70;;;10.30;99.90;;;;;;4960012;28;20046;-71
2022/06/01 01:38:56;;;;;;;0.63;0.63;;;10.30;99.90;;;;;;4960168;28;20050;-71
2022/06/01 01:41:52;;;;;;;0.50;0.50;;;10.30;99.90;;;;;;4960589;28;20116;-71
2022/06/01 01:44:34;;;;;;;1.33;0.57;;;10.30;99.90;;;;;;4928746;28;20150;-71
2022/06/01 01:47:00;;;;;;;0.50;0.50;;;10.30;99.90;;;;;;4980735;28;20053;-71
2022/06/01 01:49:33;;;;;;;0.60;0.60;;;10.40;99.90;;;;;;4976419;28;20399;-71
2022/06/01 01:52:05;;;;;;;0.50;0.50;;;10.40;99.90;;;;;;4979549;28;20086;-71
2022/06/01 01:54:56;;;;;;;0.50;0.50;;;10.40;99.90;;;;;;4979256;28;20054;-71
2022/06/01 01:57:43;;;;;;;0.50;0.50;;;10.40;99.90;;;;;;4979143;28;20057;-71
2022/06/01 02:00:26;;;;;;;3.50;0.85;;;10.30;99.90;;;;;;4979462;28;20128;-71
2022/06/01 02:03:27;;;;;;;0.60;0.60;;;10.40;99.90;;;;;;4977506;28;20144;-71
2022/06/01 02:06:04;;;;;;;0.57;0.57;;;10.40;99.90;;;;;;4976797;28;20375;-71
2022/06/01 02:09:04;;;;;;;0.68;0.68;;;10.40;99.90;;;;;;4959600;28;20043;-70
2022/06/01 02:14:51;;;;;;;0.70;0.70;;;10.30;99.90;;;;;;4960002;28;20054;-70
2022/06/01 02:17:22;;;;;;;1.02;0.70;;;10.30;99.90;;;;;;4959308;28;20063;-71
2022/06/01 02:20:05;;;;;;;0.70;0.60;;;10.30;99.90;;;;;;4995541;28;20058;-71
2022/06/01 02:22:34;;;;;;;0.50;0.50;;;10.30;99.90;;;;;;4978807;28;20086;-71
2022/06/01 02:25:00;;;;;;;0.50;0.50;;;10.20;99.90;;;;;;4996048;28;20053;-71
2022/06/01 02:27:27;;;;;;;2.15;0.52;;;10.20;99.90;;;;;;4978837;28;20050;-71
2022/06/01 02:30:14;;;;;;;0.50;0.50;;;10.20;99.90;;;;;;4995597;28;20061;-71
2022/06/01 02:32:41;;;;;;;0.50;0.50;;;10.20;99.90;;;;;;4974833;28;20117;-70
2022/06/01 02:35:10;;;;;;;0.60;0.55;;;10.20;99.90;;;;;;4959413;28;20046;-71
2022/06/01 02:37:39;;;;;;;0.65;0.65;;;10.30;99.90;;;;;;4975873;28;20130;-71
2022/06/01 02:40:09;;;;;;;0.80;0.80;;;10.20;99.90;;;;;;4959416;28;20475;-71
2022/06/01 02:42:43;;;;;;;0.50;0.50;;;10.20;99.90;;;;;;4959205;28;20066;-71
2022/06/01 02:45:10;;;;;;;3.55;0.75;;;10.30;99.90;;;;;;4958982;28;20113;-71
2022/06/01 02:47:45;;;;;;;0.80;0.80;;;10.20;99.90;;;;;;4964663;28;20081;-71
2022/06/01 02:50:20;;;;;;;0.68;0.68;;;10.30;99.90;;;;;;4995788;28;20066;-71
2022/06/01 02:52:47;;;;;;;0.50;0.50;;;10.30;99.90;;;;;;4978528;28;20058;-71
2022/06/01 02:55:14;;;;;;;0.90;0.90;;;10.20;99.90;;;;;;4995570;28;20053;-72
2022/06/01 02:57:42;;;;;;;0.70;0.70;;;10.30;99.90;;;;;;4978736;28;20058;-71
2022/06/01 03:00:18;;;;;;;1.33;0.57;;;10.30;99.90;;;;;;4995878;28;20077;-71
2022/06/01 03:02:51;;;;;;;0.75;0.75;;;10.30;99.90;;;;;;4969486;28;20446;-71
2022/06/01 03:05:19;;;;;;;0.60;0.60;;;10.40;99.90;;;;;;4959659;28;20058;-71
2022/06/01 03:07:45;;;;;;;1.05;0.90;;;10.30;99.90;;;;;;4959064;28;20074;-70
2022/06/01 03:10:11;;;;;;;0.60;0.60;;;10.30;99.90;;;;;;4975812;28;20047;-70
2022/06/01 03:12:38;;;;;;;0.70;0.70;;;10.30;99.90;;;;;;4976384;28;20177;-71
2022/06/01 03:15:06;;;;;;;0.45;0.45;;;10.30;99.90;;;;;;4958929;28;20058;-70
2022/06/01 03:17:32;;;;;;;0.70;0.70;;;10.30;99.90;;;;;;4951197;28;20132;-71
2022/06/01 03:19:58;;;;;;;2.47;0.70;;;10.30;99.90;;;;;;4962174;28;20054;-71
2022/06/01 03:22:24;;;;;;;1.10;1.00;;;10.30;99.90;;;;;;4959075;28;20051;-71
2022/06/01 03:24:50;;;;;;;0.73;0.73;;;10.30;99.90;;;;;;4958794;28;20450;-71
2022/06/01 03:27:17;;;;;;;0.70;0.70;;;10.30;99.90;;;;;;4975570;28;20051;-71
2022/06/01 03:29:43;;;;;;;0.70;0.70;;;10.30;99.90;;;;;;4959363;28;20082;-71
2022/06/01 03:32:09;;;;;;;1.20;0.93;;;10.40;99.90;;;;;;4975892;28;20042;-71
2022/06/01 03:34:34;;;;;;;0.50;0.50;;;10.40;99.90;;;;;;4973355;28;20054;-71
2022/06/01 03:37:00;;;;;;;0.70;0.70;;;10.30;99.90;;;;;;4977683;28;20070;-71
2022/06/01 03:39:25;;;;;;;0.50;0.50;;;10.50;99.90;;;;;;4994967;28;20042;-71
2022/06/01 03:41:51;;;;;;;0.60;0.60;;;10.40;99.90;;;;;;4977787;28;20485;-71
2022/06/01 03:47:02;;;;;;;0.50;0.50;;;10.40;99.90;;;;;;4978171;28;20411;-71
2022/06/01 03:49:28;;;;;;;1.10;0.70;;;10.50;99.90;;;;;;4996251;28;20075;-72
2022/06/01 03:51:53;;;;;;;0.60;0.60;;;10.40;99.90;;;;;;4981496;28;20374;-71
2022/06/01 03:54:20;;;;;;;0.50;0.50;;;10.50;99.90;;;;;;4981765;28;20046;-71
2022/06/01 03:56:47;;;;;;;1.00;0.88;;;10.50;99.90;;;;;;4946690;28;20113;-71
2022/06/01 03:59:14;;;;;;;0.80;0.80;;;10.50;99.90;;;;;;4946782;28;20378;-70
2022/06/01 04:01:39;;;;;;;0.73;0.73;;;10.50;99.90;;;;;;4961871;28;20101;-71
2022/06/01 04:04:05;;;;;;;2.80;1.23;;;10.60;99.90;;;;;;4979377;28;20038;-72
2022/06/01 04:06:31;;;;;;;0.70;0.70;;;10.60;99.90;;;;;;4984141;28;20435;-71
2022/06/01 04:08:57;;;;;;;0.63;0.63;;;10.70;99.90;;;;;;4994261;28;20042;-70
2022/06/01 04:11:22;;;;;;;0.40;0.40;;;10.80;99.90;;;;;;5017435;28;20056;-71
2022/06/01 04:13:48;;;;;;;0.50;0.50;;;10.70;99.90;;;;;;4981255;28;20046;-71
2022/06/01 04:16:18;;;;;;;0.45;0.45;;;10.80;99.90;;;;;;4981055;28;20057;-71
2022/06/01 04:18:44;;;;;;;1.17;0.95;;;10.90;99.90;;;;;;4980680;28;20466;-71
2022/06/01 04:21:11;;;;;;;0.73;0.73;;;10.90;99.90;;;;;;4981812;28;20490;-71
2022/06/01 04:23:36;;;;;;;1.42;0.98;;;10.90;99.90;;;;;;4964831;28;20042;-70
2022/06/01 04:26:02;;;;;;;0.95;0.85;;;11.00;99.90;;;;;;4981079;28;20451;-72
2022/06/01 04:28:27;;;;;;;0.90;0.90;;;11.20;99.90;;;;;;4981040;28;20051;-70
2022/06/01 04:30:53;;;;;;;0.70;0.70;;;11.20;99.90;;;;;;4981066;28;20057;-70
2022/06/01 04:33:19;;;;;;;0.55;0.55;;;11.30;99.90;;;;;;4994009;28;20431;-72
2022/06/01 04:35:44;;;;;;;2.10;1.38;;;11.40;99.90;;;;;;4961815;28;20051;-71
2022/06/01 04:38:13;;;;;;;1.48;1.17;;;11.40;99.90;;;;;;4961503;28;20073;-71
2022/06/01 04:40:41;;;;;;;0.57;0.57;;;11.40;99.90;;;;;;4945319;28;20378;-71
2022/06/01 04:43:07;;;;;;;0.47;0.47;;;11.40;99.90;;;;;;4963215;28;20070;-71
2022/06/01 04:45:32;;;;;;;1.40;1.30;;;11.50;99.90;;;;;;4961277;28;20435;-71
2022/06/01 04:47:58;;;;;;;1.15;1.08;;;11.50;99.90;;;;;;4961227;28;20039;-71
2022/06/01 04:50:23;;;;;;;0.85;0.80;;;11.50;99.90;;;;;;4977993;28;20508;-71
2022/06/01 04:52:49;;;;;;;0.70;0.70;;;11.40;99.90;;;;;;4978084;28;20074;-70
2022/06/01 04:55:14;;;;;;;0.75;0.75;;;11.40;99.90;;;;;;4978072;28;20447;-71
2022/06/01 04:57:40;;;;;;;1.13;0.80;;;11.40;99.90;;;;;;4978707;28;20043;-70
2022/06/01 05:00:08;;;;;;;1.15;1.08;;;11.50;99.90;;;;;;4997106;28;20061;-68
2022/06/01 05:02:34;;;;;;;1.08;0.98;;;11.40;99.90;;;;;;4966741;28;20114;-69
2022/06/01 05:05:00;;;;;;;0.70;0.70;;;11.50;99.90;;;;;;4961266;28;20490;-69
2022/06/01 05:07:25;;;;;;;1.23;1.08;;;11.40;99.90;;;;;;4960922;28;20058;-71
2022/06/01 05:09:51;;;;;;;0.50;0.50;;;11.40;99.90;;;;;;4977895;28;20051;-71
2022/06/01 05:12:17;;;;;;;2.42;1.17;;;11.40;99.90;;;;;;4977774;28;20053;-71
2022/06/01 05:14:42;;;;;;;1.92;1.15;;;11.40;99.90;;;;;;4960885;28;20054;-70
2022/06/01 05:17:08;;;;;;;0.60;0.60;;;11.50;99.90;;;;;;4971136;28;20046;-71
2022/06/01 05:19:34;;;;;;;0.70;0.70;;;11.60;99.90;;;;;;4979978;28;20046;-72
2022/06/01 05:22:00;;;;;;;1.30;1.10;;;11.70;99.90;;;;;;4956422;28;20408;-71
2022/06/01 05:24:26;;;;;;;0.80;0.80;;;11.80;99.90;;;;;;4940418;29;20054;-71
2022/06/01 05:26:51;;;;;;;0.52;0.52;;;11.90;99.90;;;;;;4943916;29;20473;-71
2022/06/01 05:29:17;;;;;;;0.85;0.70;;;11.90;99.90;;;;;;4932109;29;20059;-71
2022/06/01 05:31:46;;;;;;;1.40;1.13;;;12.00;99.90;;;;;;4934770;28;20063;-71
2022/06/01 05:34:12;;;;;;;0.75;0.75;;;12.00;99.90;;;;;;4924107;29;20047;-72
2022/06/01 05:36:38;;;;;;;1.33;1.13;;;12.00;99.90;;;;;;4948336;28;20122;-72
2022/06/01 05:39:04;;;;;;;0.60;0.60;;;12.00;99.90;;;;;;4937376;29;20059;-71
2022/06/01 05:41:30;;;;;;;0.75;0.75;;;12.00;99.90;;;;;;4944247;28;20059;-71
2022/06/01 05:43:56;;;;;;;1.15;1.05;;;12.00;99.90;;;;;;4936514;29;20048;-72
2022/06/01 05:46:22;;;;;;;1.25;0.90;;;12.10;99.90;;;;;;4950293;28;20047;-71
2022/06/01 05:48:48;;;;;;;0.68;0.68;;;12.10;99.90;;;;;;4939804;29;20055;-72
2022/06/01 05:51:14;;;;;;;0.68;0.63;;;12.10;99.90;;;;;;4938504;28;20051;-71
2022/06/01 05:53:40;;;;;;;0.82;0.82;;;12.20;99.90;;;;;;4969633;28;20260;-72
2022/06/01 05:56:05;;;;;;;0.80;0.80;;;12.20;99.90;;;;;;4970634;28;20054;-72
2022/06/01 05:58:32;;;;;;;1.35;1.08;;;12.30;99.90;;;;;;4971154;28;20051;-71
2022/06/01 06:01:03;;;;;;;0.93;0.82;;;12.30;99.90;;;;;;4978393;28;20071;-72
2022/06/01 06:03:28;;;;;;;1.70;0.98;;;12.30;99.90;;;;;;4970514;28;20055;-70
2022/06/01 06:06:14;;;;;;;0.90;0.80;;;12.30;99.90;;;;;;4993992;28;20505;-71
2022/06/01 06:08:44;;;;;;;0.73;0.73;;;12.50;99.90;;;;;;4995903;28;20051;-70
2022/06/01 06:11:11;;;;;;;0.60;0.60;;;12.60;99.90;;;;;;4995552;28;20050;-71
2022/06/01 06:13:37;;;;;;;3.05;0.90;;;12.80;99.90;;;;;;4976479;28;20038;-68
2022/06/01 06:16:04;;;;;;;0.65;0.65;;;12.80;99.90;;;;;;4973492;28;20120;-69
2022/06/01 06:18:30;;;;;;;1.85;1.48;;;12.80;99.90;;;;;;4959166;28;20066;-70
2022/06/01 06:20:55;;;;;;;0.50;0.50;;;12.80;99.90;;;;;;4994751;28;20129;-71
2022/06/01 06:23:21;;;;;;;0.60;0.60;;;12.80;99.90;;;;;;4995829;28;20480;-71
2022/06/01 06:25:47;;;;;;;1.75;0.90;;;12.90;99.90;;;;;;4959677;28;20418;-71
2022/06/01 06:28:13;;;;;;;1.17;0.98;;;12.90;99.90;;;;;;4964468;28;20093;-70
2022/06/01 06:30:40;;;;;;;0.75;0.75;;;12.90;99.90;;;;;;4978075;28;20137;-71
2022/06/01 06:33:06;;;;;;;1.27;0.82;;;12.90;99.90;;;;;;4978451;28;20053;-70
2022/06/01 06:35:32;;;;;;;1.70;1.23;;;13.00;99.90;;;;;;4978361;28;20375;-71
2022/06/01 06:37:58;;;;;;;1.45;1.15;;;13.00;99.90;;;;;;4995316;28;20046;-71
2022/06/01 06:40:24;;;;;;;1.75;1.00;;;13.00;99.90;;;;;;4977971;28;20057;-71
2022/06/01 06:42:51;;;;;;;0.50;0.50;;;13.10;99.90;;;;;;4977098;28;20042;-71
2022/06/01 06:45:17;;;;;;;0.70;0.52;;;13.20;99.90;;;;;;4988869;28;20046;-71
2022/06/01 06:47:43;;;;;;;0.40;0.40;;;13.20;99.90;;;;;;4968857;28;20045;-71
2022/06/01 06:50:10;;;;;;;0.68;0.68;;;13.30;99.90;;;;;;4978300;28;20459;-71
2022/06/01 06:52:36;;;;;;;0.57;0.57;;;13.40;99.90;;;;;;4995301;28;20467;-70
2022/06/01 06:55:02;;;;;;;0.40;0.40;;;13.50;99.90;;;;;;4978473;28;20081;-71
2022/06/01 06:57:28;;;;;;;0.50;0.50;;;13.60;99.90;;;;;;4977905;28;20078;-72
2022/06/01 06:59:53;;;;;;;0.50;0.50;;;13.70;99.90;;;;;;4957751;28;20074;-71
2022/06/01 07:02:19;;;;;;;0.40;0.40;;;13.80;99.90;;;;;;4987199;28;20457;-71
2022/06/01 07:04:48;;;;;;;0.65;0.55;;;14.00;99.90;;;;;;4991894;28;20046;-71
2022/06/01 07:07:14;;;;;;;0.50;0.50;;;14.00;99.90;;;;;;4990473;28;20060;-71
2022/06/01 07:09:40;;;;;;;0.63;0.63;;;14.20;99.90;;;;;;4962724;28;20395;-71
2022/06/01 07:12:06;;;;;;;0.95;0.77;;;14.30;99.90;;;;;;4968987;28;20062;-71
2022/06/01 07:14:32;;;;;;;2.10;1.00;;;14.50;99.90;;;;;;4961896;28;20051;-71
2022/06/01 07:17:01;;;;;;;0.70;0.70;;;14.60;99.90;;;;;;4976716;28;20423;-71
2022/06/01 07:19:27;;;;;;;0.50;0.50;;;14.80;99.90;;;;;;4977863;28;20050;-71
2022/06/01 07:21:54;;;;;;;0.50;0.50;;;14.90;99.90;;;;;;4978305;28;20463;-71
2022/06/01 07:24:21;;;;;;;2.33;1.60;;;15.10;99.90;;;;;;4978723;28;20455;-72
2022/06/01 07:26:47;;;;;;;0.50;0.50;;;15.20;99.90;;;;;;4980791;28;20439;-71
2022/06/01 07:29:15;;;;;;;0.75;0.75;;;15.20;99.90;;;;;;4998330;28;20387;-71
2022/06/01 07:31:41;;;;;;;0.50;0.50;;;15.30;99.90;;;;;;4992838;28;20042;-71
2022/06/01 07:34:07;;;;;;;0.47;0.47;;;15.40;99.90;;;;;;4981713;28;20051;-69
2022/06/01 07:36:34;;;;;;;1.00;0.80;;;15.40;99.90;;;;;;4981545;28;20200;-69
2022/06/01 07:44:34;;;;;;;0.50;0.50;;;15.60;99.90;;;;;;4977528;28;20073;-71
2022/06/01 07:47:00;;;;;;;0.30;0.30;;;15.70;99.90;;;;;;4997537;28;20077;-71
2022/06/01 07:49:26;;;;;;;1.08;1.00;;;15.90;99.90;;;;;;4962306;28;20122;-71
2022/06/01 07:51:53;;;;;;;0.77;0.60;;;15.80;99.90;;;;;;4962901;28;20047;-70
2022/06/01 07:54:19;;;;;;;0.50;0.50;;;15.90;99.90;;;;;;4981589;28;20081;-70
2022/06/01 07:56:45;;;;;;;0.40;0.40;;;15.90;99.90;;;;;;4972924;28;20104;-68
2022/06/01 07:59:11;;;;;;;3.50;0.95;;;16.10;99.90;;;;;;4997996;28;20042;-68
2022/06/01 08:01:37;;;;;;;0.50;0.50;;;16.30;99.90;;;;;;4997557;28;20104;-68
2022/06/01 08:04:04;;;;;;;0.30;0.30;;;16.20;99.90;;;;;;4980300;28;20529;-68
2022/06/01 08:06:32;;;;;;;0.38;0.38;;;16.40;99.90;;;;;;4980959;28;20486;-68
2022/06/01 08:08:58;;;;;;;0.32;0.32;;;16.20;99.90;;;;;;4961532;28;20074;-68
2022/06/01 08:13:06;;;;;;;0.50;0.50;;;16.30;99.90;;;;;;4976148;28;20066;-68
2022/06/01 08:14:11;;;;;;;0.73;0.73;;;16.30;99.90;;;;;;4979463;28;20046;-67
2022/06/01 08:16:38;;;;;;;2.05;0.70;;;16.40;99.90;;;;;;4996045;28;20034;-68
2022/06/01 08:19:08;;;;;;;0.40;0.40;;;16.40;99.90;;;;;;4989498;28;20055;-68
2022/06/01 08:21:35;;;;;;;1.75;0.60;;;16.40;99.90;;;;;;4992605;28;20050;-70
2022/06/01 08:24:01;;;;;;;0.60;0.55;;;16.50;99.90;;;;;;4986754;28;20045;-70
2022/06/01 08:26:27;;;;;;;0.35;0.35;;;16.70;99.90;;;;;;4961567;28;20046;-69
2022/06/01 08:28:53;;;;;;;0.63;0.60;;;16.80;99.90;;;;;;4978682;28;20042;-69
2022/06/01 08:31:18;;;;;;;0.52;0.45;;;17.10;99.90;;;;;;4967940;28;20082;-69
2022/06/01 08:33:44;;;;;;;0.40;0.40;;;17.40;99.90;;;;;;4979055;28;20042;-70
2022/06/01 08:36:10;;;;;;;0.55;0.52;;;17.80;99.90;;;;;;4977711;28;20050;-69
2022/06/01 08:38:35;;;;;;;0.50;0.50;;;17.80;99.90;;;;;;4961288;28;20058;-70
2022/06/01 08:41:08;;;;;;;0.40;0.40;;;18.20;99.90;;;;;;4978398;28;20460;-70
2022/06/01 08:43:49;;;;;;;0.57;0.57;;;18.30;99.90;;;;;;4961309;28;20051;-70
2022/06/01 08:46:15;;;;;;;0.40;0.40;;;18.50;99.90;;;;;;4978520;28;20058;-69
2022/06/01 08:48:48;;;;;;;0.88;0.80;;;18.20;99.90;;;;;;4964177;28;20046;-70
2022/06/01 08:51:16;;;;;;;0.57;0.50;;;18.00;99.90;;;;;;4997687;28;20422;-69
2022/06/01 08:53:42;;;;;;;0.30;0.30;;;17.50;99.90;;;;;;4980736;28;20061;-69
2022/06/01 08:56:23;;;;;;;1.00;0.95;;;17.20;99.90;;;;;;4980479;28;20058;-70
2022/06/01 08:59:07;;;;;;;0.40;0.40;;;16.80;99.90;;;;;;4980433;28;20065;-69
2022/06/01 09:01:42;;;;;;;0.73;0.57;;;16.20;99.90;;;;;;4964002;28;20042;-69
2022/06/01 09:04:47;;;;;;;0.40;0.40;;;15.80;99.90;;;;;;4976431;28;20046;-69
2022/06/01 09:07:22;;;;;;;1.58;1.48;;;15.40;99.90;;;;;;4928413;28;20050;-69
2022/06/01 09:10:11;;;;;;;1.08;1.00;;;15.10;99.90;;;;;;4979847;28;20050;-69
2022/06/01 09:12:37;;;;;;;2.60;0.57;;;14.80;99.90;;;;;;4997276;28;20058;-70
2022/06/01 09:15:12;;;;;;;0.55;0.55;;;14.50;99.90;;;;;;4997217;28;20042;-69
2022/06/01 09:17:39;;;;;;;0.85;0.85;;;14.40;99.90;;;;;;4996933;28;20133;-69
2022/06/01 09:22:53;;;;;;;0.90;0.77;;;14.80;99.90;;;;;;4977866;28;20050;-69
2022/06/01 09:25:26;;;;;;;0.40;0.40;;;15.30;99.90;;;;;;4977784;28;20054;-69
2022/06/01 09:27:59;;;;;;;0.30;0.30;;;16.10;99.90;;;;;;4960478;28;20472;-70
2022/06/01 09:30:35;;;;;;;1.30;0.77;;;16.50;99.90;;;;;;4977388;28;20054;-69
2022/06/01 09:33:14;;;;;;;0.40;0.40;;;16.70;99.90;;;;;;4961021;28;20046;-69
2022/06/01 09:35:56;;;;;;;0.38;0.38;;;17.10;99.90;;;;;;4977367;28;20066;-70
2022/06/01 09:38:41;;;;;;;0.30;0.30;;;17.40;99.90;;;;;;4976984;28;20065;-70
2022/06/01 09:41:24;;;;;;;1.30;0.30;;;17.10;99.90;;;;;;4960400;28;20058;-69
2022/06/01 09:44:05;;;;;;;1.08;0.52;;;16.70;99.90;;;;;;4980882;28;20476;-69
2022/06/01 09:46:40;;;;;;;0.60;0.60;;;16.50;99.90;;;;;;4962441;28;20050;-69
2022/06/01 09:49:18;;;;;;;0.30;0.30;;;16.40;99.90;;;;;;4996282;28;20451;-69
2022/06/01 09:51:46;;;;;;;0.22;0.22;;;16.20;99.90;;;;;;4979851;28;20089;-70
2022/06/01 09:54:26;;;;;;;0.40;0.40;;;16.10;99.90;;;;;;4993243;28;20050;-69
2022/06/01 09:56:52;;;;;;;0.40;0.40;;;16.40;99.90;;;;;;4978962;28;20038;-69
2022/06/01 10:08:15;;;;;;;0.20;0.20;;;18.20;99.90;;;;;;4976551;28;20051;-72
2022/06/01 10:10:56;;;;;;;1.38;0.73;;;17.90;99.90;;;;;;4971484;28;20182;-70
2022/06/01 10:13:33;;;;;;;0.60;0.60;;;17.20;99.90;;;;;;4978605;28;20090;-70
2022/06/01 10:16:08;;;;;;;0.65;0.65;;;15.60;99.90;;;;;;4995888;28;20128;-70
2022/06/01 10:18:37;;;;;;;0.30;0.30;;;14.70;99.90;;;;;;4996383;28;20356;-70
2022/06/01 10:21:11;;;;;;;0.50;0.50;;;14.00;99.90;;;;;;4978799;28;20129;-70
2022/06/01 10:23:50;;;;;;;0.50;0.50;;;13.60;99.90;;;;;;4996003;28;20474;-70
2022/06/01 10:26:25;;;;;;;0.45;0.45;;;13.40;99.90;;;;;;4961042;28;20090;-70
2022/06/01 10:28:56;;;;;;;0.40;0.40;;;13.20;99.90;;;;;;4959540;28;20058;-70
2022/06/01 10:31:28;;;;;;;0.30;0.30;;;12.90;99.90;;;;;;4959672;28;20086;-70
2022/06/01 10:34:25;;;;;;;0.40;0.40;;;13.20;99.90;;;;;;4961564;28;20046;-70
2022/06/01 10:37:00;;;;;;;0.77;0.70;;;13.60;99.90;;;;;;4978434;28;20065;-70
2022/06/01 10:39:42;;;;;;;0.52;0.52;;;14.00;99.90;;;;;;4995516;28;20057;-69
2022/06/01 10:42:23;;;;;;;0.60;0.60;;;14.30;99.90;;;;;;4995958;28;20050;-69
2022/06/01 10:44:55;;;;;;;0.50;0.50;;;14.70;99.90;;;;;;4995571;28;20038;-69
2022/06/01 10:47:42;;;;;;;1.88;0.60;;;15.10;99.90;;;;;;4978653;28;20054;-70
2022/06/01 10:50:16;;;;;;;0.52;0.52;;;15.30;99.90;;;;;;4995818;28;20065;-69
2022/06/01 10:52:48;;;;;;;;;;;15.40;99.90;;;;;;4976753;28;20085;-69
2022/06/01 10:55:24;;;;;;;0.40;0.40;;;15.50;99.90;;;;;;4959353;28;19923;-70
2022/06/01 10:57:50;;;;;;;0.50;0.50;;;15.40;99.90;;;;;;4975472;28;20515;-69
2022/06/01 11:00:25;;;;;;;0.50;0.50;;;15.50;99.90;;;;;;4976223;28;20122;-70
2022/06/01 11:03:08;;;;;;;0.50;0.47;;;15.50;99.90;;;;;;4943020;28;20053;-69
2022/06/01 11:05:47;;;;;;;0.30;0.30;;;15.60;99.90;;;;;;4959056;28;20047;-69
2022/06/01 11:08:13;;;;;;;0.70;0.70;;;15.60;99.90;;;;;;4959250;28;20061;-70
2022/06/01 11:10:41;;;;;;;0.50;0.50;;;15.60;99.90;;;;;;4975996;28;20126;-69
2022/06/01 11:13:26;;;;;;;0.65;0.57;;;15.60;99.90;;;;;;4976005;28;20364;-69
2022/06/01 11:16:22;;;;;;;0.75;0.70;;;15.50;99.90;;;;;;4958470;28;20055;-70
2022/06/01 11:19:05;;;;;;;0.68;0.68;;;15.40;99.90;;;;;;4953356;28;20483;-72
2022/06/01 11:21:52;;;;;;;0.75;0.57;;;15.30;99.90;;;;;;4959234;28;20059;-70
2022/06/01 11:25:03;;;;;;;0.55;0.55;;;15.30;99.90;;;;;;4976085;28;20341;-70
2022/06/01 11:27:43;;;;;;;1.02;0.98;;;15.10;99.90;;;;;;4958925;28;20062;-69
2022/06/01 11:30:20;;;;;;;0.45;0.45;;;14.80;99.90;;;;;;4958707;28;20046;-69
2022/06/01 11:32:58;;;;;;;0.32;0.32;;;14.40;99.90;;;;;;4973042;28;20065;-70
2022/06/01 11:35:47;;;;;;;0.50;0.50;;;14.20;99.90;;;;;;4978672;28;20050;-69
2022/06/01 11:38:22;;;;;;;0.40;0.40;;;14.00;99.90;;;;;;4995095;28;20038;-69
2022/06/01 11:40:53;;;;;;;0.50;0.50;;;13.90;99.90;;;;;;4977797;28;20084;-69
2022/06/01 11:43:27;;;;;;;0.65;0.60;;;13.80;99.90;;;;;;4995261;28;20046;-70
2022/06/01 11:46:03;;;;;;;0.50;0.50;;;13.70;99.90;;;;;;4968561;28;20352;-69
2022/06/01 11:48:33;;;;;;;0.55;0.40;;;13.60;99.90;;;;;;4977932;28;20054;-70
2022/06/01 11:51:15;;;;;;;0.63;0.63;;;13.40;99.90;;;;;;4995223;28;20058;-69
2022/06/01 11:54:00;;;;;;;0.30;0.30;;;13.30;99.90;;;;;;4977119;28;20131;-70
2022/06/01 11:56:30;;;;;;;0.43;0.43;;;13.20;99.90;;;;;;4978066;28;20061;-69
2022/06/01 11:59:18;;;;;;;0.60;0.60;;;13.10;99.90;;;;;;4994756;28;20466;-71
2022/06/01 12:02:01;;;;;;;0.50;0.50;;;13.20;99.90;;;;;;4977854;28;20058;-72
2022/06/01 12:04:36;;;;;;;0.47;0.47;;;13.30;99.90;;;;;;4977486;28;20046;-72
2022/06/01 12:07:13;;;;;;;0.82;0.50;;;13.70;99.90;;;;;;4994940;28;20058;-72
2022/06/01 12:10:00;;;;;;;0.40;0.40;;;13.90;99.90;;;;;;4968080;28;20487;-72
2022/06/01 12:12:32;;;;;;;0.60;0.60;;;14.20;99.90;;;;;;4978801;28;20082;-72
2022/06/01 12:15:16;;;;;;;0.50;0.50;;;14.30;99.90;;;;;;4961495;28;20054;-72
2022/06/01 12:18:07;;;;;;;0.40;0.40;;;14.60;99.90;;;;;;4978868;28;20062;-69
2022/06/01 12:20:33;;;;;;;0.40;0.40;;;14.90;99.90;;;;;;4969607;28;20055;-69
2022/06/01 12:28:51;;;;;;;0.80;0.80;;;16.20;99.90;;;;;;4942025;29;20059;-69
2022/06/01 12:31:32;;;;;;;0.40;0.40;;;17.00;99.90;;;;;;4942018;29;20054;-68
2022/06/01 12:34:08;;;;;;;0.30;0.30;;;17.40;99.90;;;;;;4959128;29;20057;-69
2022/06/01 12:36:54;;;;;;;0.50;0.50;;;17.70;99.90;;;;;;4958989;28;20043;-70
2022/06/01 12:39:20;;;;;;;0.77;0.77;;;17.90;99.90;;;;;;4961096;28;20102;-69
2022/06/01 12:41:50;;;;;;;0.52;0.52;;;17.90;99.90;;;;;;4961123;28;20148;-70
2022/06/01 12:44:17;;;;;;;0.40;0.40;;;17.90;99.90;;;;;;4961901;28;20105;-69
2022/06/01 12:46:48;;;;;;;1.30;1.20;;;18.20;99.90;;;;;;4961467;28;20185;-69
2022/06/01 12:49:45;;;;;;;0.40;0.40;;;18.10;99.90;;;;;;4978414;28;20069;-69
2022/06/01 12:52:23;;;;;;;0.30;0.30;;;17.90;99.90;;;;;;4977112;28;20086;-70
2022/06/01 12:54:53;;;;;;;0.32;0.32;;;17.70;99.90;;;;;;4978399;28;20042;-69
2022/06/01 12:57:37;;;;;;;1.45;0.40;;;17.50;99.90;;;;;;4978335;28;20471;-69
2022/06/01 13:00:12;;;;;;;0.63;0.60;;;17.30;99.90;;;;;;4960909;28;20051;-70
2022/06/01 13:02:39;;;;;;;0.20;0.20;;;16.60;99.90;;;;;;4961001;28;20059;-69
2022/06/01 13:05:11;;;;;;;0.30;0.30;;;16.10;99.90;;;;;;4977831;28;20125;-70
2022/06/01 13:07:44;;;;;;;0.30;0.30;;;15.70;99.90;;;;;;4965152;28;20074;-69
2022/06/01 13:10:17;;;;;;;0.20;0.20;;;15.50;99.90;;;;;;4976418;28;20125;-69
2022/06/01 13:12:43;;;;;;;0.30;0.30;;;15.40;99.90;;;;;;4960829;28;20371;-69
2022/06/01 13:15:18;;;;;;;0.30;0.30;;;15.40;99.90;;;;;;4977938;28;20117;-69
2022/06/01 13:17:50;;;;;;;0.30;0.30;;;15.40;99.90;;;;;;4953394;28;20050;-68
2022/06/01 13:20:16;;;;;;;0.40;0.40;;;15.40;99.90;;;;;;4980190;28;20069;-69
2022/06/01 13:22:46;;;;;;;0.40;0.40;;;15.30;99.90;;;;;;4996436;28;20050;-69
2022/06/01 13:25:19;;;;;;;0.30;0.30;;;15.20;99.90;;;;;;4979651;28;20050;-69
2022/06/01 13:27:46;;;;;;;0.20;0.20;;;15.10;99.90;;;;;;4980662;28;20093;-69
2022/06/01 13:30:14;;;;;;;0.30;0.30;;;15.00;99.90;;;;;;4979964;28;20482;-69
2022/06/01 13:32:43;;;;;;;0.30;0.30;;;14.90;99.90;;;;;;4980425;28;20465;-69
2022/06/01 13:35:21;;;;;;;0.30;0.30;;;14.70;99.90;;;;;;4955462;28;20050;-69
2022/06/01 13:37:50;;;;;;;0.30;0.30;;;14.70;99.90;;;;;;4960207;28;20039;-70